createdAt,value
2023-08-09T00:00:20.738Z,10.52
2023-08-09T00:02:48.012Z,11.00
2023-08-09T00:05:15.292Z,9.88
2023-08-09T00:07:42.481Z,11.23
2023-08-09T00:10:09.760Z,9.90
2023-08-09T00:12:39.905Z,12.25
2023-08-09T00:15:08.753Z,10.00
2023-08-09T00:17:37.596Z,10.07
2023-08-09T00:20:05.380Z,10.23
2023-08-09T00:22:32.708Z,13.05
2023-08-09T00:24:59.842Z,11.30
2023-08-09T00:27:27.194Z,11.40
2023-08-09T00:29:54.431Z,10.95
2023-08-09T00:32:21.854Z,11.82
2023-08-09T00:34:49.549Z,12.65
2023-08-09T00:37:16.770Z,12.18
2023-08-09T00:39:44.112Z,13.15
2023-08-09T00:42:11.296Z,12.05
2023-08-09T00:44:38.477Z,12.18
2023-08-09T00:47:08.016Z,12.07
2023-08-09T00:49:36.289Z,12.52
2023-08-09T00:52:04.904Z,12.65
2023-08-09T00:54:32.361Z,12.63
2023-08-09T00:56:59.964Z,11.63
2023-08-09T00:59:27.469Z,11.10
2023-08-09T01:01:54.665Z,11.68
2023-08-09T01:04:21.866Z,12.68
2023-08-09T01:06:52.624Z,12.35
2023-08-09T01:09:42.493Z,11.30
2023-08-09T01:12:15.485Z,11.48
2023-08-09T01:14:47.899Z,12.82
2023-08-09T01:17:16.651Z,10.80
2023-08-09T01:19:47.964Z,11.52
2023-08-09T01:22:19.128Z,13.70
2023-08-09T01:24:50.051Z,11.55
2023-08-09T01:27:17.282Z,12.05
2023-08-09T01:29:45.980Z,12.07
2023-08-09T01:32:14.147Z,12.98
2023-08-09T01:34:41.510Z,12.88
2023-08-09T01:37:17.718Z,11.73
2023-08-09T01:39:45.234Z,12.43
2023-08-09T01:42:13.997Z,13.65
2023-08-09T01:44:41.714Z,13.23
2023-08-09T01:47:09.215Z,11.70
2023-08-09T01:49:38.424Z,11.70
2023-08-09T01:52:05.850Z,14.75
2023-08-09T01:54:33.241Z,11.98
2023-08-09T01:57:00.639Z,13.00
2023-08-09T01:59:28.058Z,13.02
2023-08-09T02:01:56.037Z,13.52
2023-08-09T02:04:23.488Z,12.70
2023-08-09T02:06:50.617Z,12.02
2023-08-09T02:09:17.891Z,11.57
2023-08-09T02:11:45.131Z,11.10
2023-08-09T02:14:15.122Z,11.88
2023-08-09T02:16:42.334Z,10.95
2023-08-09T02:19:11.486Z,11.98
2023-08-09T02:21:39.688Z,12.40
2023-08-09T02:24:11.085Z,14.88
2023-08-09T02:26:40.445Z,13.02
2023-08-09T02:29:07.794Z,12.32
2023-08-09T02:31:36.716Z,14.07
2023-08-09T02:34:03.991Z,13.23
2023-08-09T02:36:31.267Z,12.02
2023-08-09T02:38:58.462Z,11.32
2023-08-09T02:41:26.641Z,12.20
2023-08-09T02:43:57.140Z,14.15
2023-08-09T02:46:24.409Z,14.65
2023-08-09T02:48:52.130Z,13.15
2023-08-09T02:51:21.474Z,11.75
2023-08-09T02:53:58.614Z,10.95
2023-08-09T02:56:25.470Z,10.80
2023-08-09T02:58:52.821Z,14.80
2023-08-09T03:01:25.486Z,10.35
2023-08-09T03:03:55.718Z,13.65
2023-08-09T03:06:23.711Z,12.95
2023-08-09T03:08:51.697Z,11.88
2023-08-09T03:11:22.364Z,12.60
2023-08-09T03:13:49.699Z,11.77
2023-08-09T03:16:17.257Z,13.70
2023-08-09T03:18:44.504Z,13.18
2023-08-09T03:21:11.817Z,10.60
2023-08-09T03:23:39.305Z,10.60
2023-08-09T03:26:07.085Z,11.57
2023-08-09T03:28:36.013Z,12.35
2023-08-09T03:33:38.294Z,12.90
2023-08-09T03:36:09.587Z,12.50
2023-08-09T03:38:36.859Z,11.18
2023-08-09T03:41:03.661Z,9.57
2023-08-09T03:43:31.714Z,10.23
2023-08-09T03:45:59.226Z,9.23
2023-08-09T03:48:28.271Z,10.07
2023-08-09T03:50:55.565Z,9.88
2023-08-09T03:53:22.860Z,9.98
2023-08-09T03:55:50.110Z,8.75
2023-08-09T03:58:17.920Z,9.43
2023-08-09T04:00:45.491Z,11.45
2023-08-09T04:03:13.210Z,9.00
2023-08-09T04:05:40.490Z,9.10
2023-08-09T04:08:08.275Z,8.52
2023-08-09T04:10:37.112Z,8.05
2023-08-09T04:13:04.785Z,9.05
2023-08-09T04:15:32.334Z,8.32
2023-08-09T04:18:00.212Z,8.55
2023-08-09T04:20:31.730Z,8.27
2023-08-09T04:23:01.533Z,9.77
2023-08-09T04:25:28.839Z,7.82
2023-08-09T04:27:57.517Z,10.13
2023-08-09T04:30:25.507Z,9.25
2023-08-09T04:32:56.192Z,11.52
2023-08-09T04:35:27.689Z,14.32
2023-08-09T04:37:54.890Z,11.88
2023-08-09T04:40:22.071Z,12.95
2023-08-09T04:42:50.957Z,17.10
2023-08-09T04:45:18.216Z,19.85
2023-08-09T04:47:45.685Z,35.78
2023-08-09T04:50:13.634Z,22.15
2023-08-09T04:52:41.001Z,27.35
2023-08-09T04:55:08.348Z,16.50
2023-08-09T04:57:37.637Z,24.17
2023-08-09T05:00:09.530Z,23.88
2023-08-09T05:02:39.823Z,21.88
2023-08-09T05:05:11.292Z,39.75
2023-08-09T05:07:41.087Z,25.77
2023-08-09T05:10:08.600Z,18.67
2023-08-09T05:12:35.852Z,16.02
2023-08-09T05:15:04.428Z,24.17
2023-08-09T05:17:31.692Z,22.63
2023-08-09T05:19:58.927Z,29.95
2023-08-09T05:22:26.241Z,20.73
2023-08-09T05:24:53.462Z,23.92
2023-08-09T05:27:20.776Z,28.63
2023-08-09T05:29:47.904Z,19.98
2023-08-09T05:32:15.233Z,20.67
2023-08-09T05:34:46.643Z,15.90
2023-08-09T05:37:13.765Z,21.50
2023-08-09T05:39:40.957Z,17.50
2023-08-09T05:42:07.796Z,22.02
2023-08-09T05:44:38.578Z,22.67
2023-08-09T05:47:05.965Z,24.70
2023-08-09T05:49:34.420Z,12.27
2023-08-09T05:52:01.554Z,18.85
2023-08-09T05:54:28.697Z,9.25
2023-08-09T05:56:56.261Z,16.50
2023-08-09T05:59:24.331Z,14.00
2023-08-09T06:01:52.134Z,15.82
2023-08-09T06:04:19.409Z,15.98
2023-08-09T06:06:47.647Z,14.27
2023-08-09T06:12:00.210Z,12.93
2023-08-09T06:14:27.489Z,13.90
2023-08-09T06:16:58.498Z,11.65
2023-08-09T06:19:25.825Z,10.35
2023-08-09T06:21:53.064Z,11.73
2023-08-09T06:24:20.347Z,11.25
2023-08-09T06:26:50.255Z,10.20
2023-08-09T06:29:17.730Z,12.70
2023-08-09T06:31:44.972Z,11.90
2023-08-09T06:34:12.373Z,10.88
2023-08-09T06:36:39.802Z,11.05
2023-08-09T06:39:07.106Z,12.65
2023-08-09T06:41:34.409Z,13.02
2023-08-09T06:44:01.628Z,13.20
2023-08-09T06:46:31.888Z,12.25
2023-08-09T06:48:59.146Z,10.65
2023-08-09T06:51:26.423Z,10.93
2023-08-09T06:53:54.387Z,12.00
2023-08-09T06:56:21.671Z,12.80
2023-08-09T06:58:51.956Z,10.75
2023-08-09T07:01:19.284Z,14.70
2023-08-09T07:03:47.684Z,11.60
2023-08-09T07:06:14.938Z,13.40
2023-08-09T07:08:42.166Z,12.30
2023-08-09T07:11:09.498Z,11.88
2023-08-09T07:13:38.526Z,12.27
2023-08-09T07:16:07.196Z,11.23
2023-08-09T07:18:34.987Z,12.57
2023-08-09T07:21:04.708Z,12.35
2023-08-09T07:23:54.002Z,12.13
2023-08-09T07:26:19.646Z,13.35
2023-08-09T07:28:46.907Z,12.25
2023-08-09T07:31:23.995Z,13.20
2023-08-09T07:33:54.567Z,12.20
2023-08-09T07:38:48.873Z,11.70
2023-08-09T07:41:16.471Z,13.57
2023-08-09T07:43:43.663Z,14.63
2023-08-09T07:46:11.955Z,12.88
2023-08-09T07:48:39.425Z,12.48
2023-08-09T07:51:09.420Z,12.38
2023-08-09T07:53:36.641Z,14.60
2023-08-09T07:56:04.432Z,13.15
2023-08-09T07:58:31.653Z,13.73
2023-08-09T08:00:59.269Z,12.40
2023-08-09T08:03:26.509Z,12.63
2023-08-09T08:05:53.811Z,11.45
2023-08-09T08:08:21.012Z,12.25
2023-08-09T08:10:48.661Z,11.88
2023-08-09T08:13:15.870Z,12.35
2023-08-09T08:15:43.268Z,13.43
2023-08-09T08:18:10.664Z,13.02
2023-08-09T08:20:37.873Z,10.40
2023-08-09T08:23:07.877Z,9.07
2023-08-09T08:25:35.143Z,11.00
2023-08-09T08:28:02.511Z,9.48
2023-08-09T08:30:29.777Z,10.68
2023-08-09T08:32:57.815Z,10.65
2023-08-09T08:35:34.674Z,9.13
2023-08-09T08:38:01.990Z,10.30
2023-08-09T08:40:32.883Z,6.90
2023-08-09T08:43:00.417Z,6.88
2023-08-09T08:45:27.731Z,5.63
2023-08-09T08:47:54.970Z,6.97
2023-08-09T08:50:22.215Z,5.20
2023-08-09T08:52:50.346Z,8.13
2023-08-09T08:55:17.614Z,6.20
2023-08-09T08:57:47.481Z,7.10
2023-08-09T09:00:27.036Z,6.03
2023-08-09T09:02:55.463Z,4.28
2023-08-09T09:05:22.717Z,6.80
2023-08-09T09:07:52.222Z,6.53
2023-08-09T09:10:20.934Z,3.53
2023-08-09T09:12:55.384Z,6.68
2023-08-09T09:15:23.618Z,5.07
2023-08-09T09:17:51.352Z,4.57
2023-08-09T09:20:25.295Z,4.38
2023-08-09T09:22:53.099Z,3.83
2023-08-09T09:25:21.430Z,4.85
2023-08-09T09:27:56.157Z,5.22
2023-08-09T09:30:25.581Z,5.95
2023-08-09T09:32:52.748Z,2.88
2023-08-09T09:35:20.478Z,4.40
2023-08-09T09:37:54.719Z,4.40
2023-08-09T09:40:30.462Z,4.30
2023-08-09T09:42:58.197Z,3.90
2023-08-09T09:45:26.671Z,5.93
2023-08-09T09:47:57.316Z,3.50
2023-08-09T09:50:25.582Z,5.65
2023-08-09T09:52:55.811Z,3.97
2023-08-09T09:55:28.889Z,5.75
2023-08-09T09:57:57.126Z,5.32
2023-08-09T10:00:24.397Z,4.28
2023-08-09T10:02:53.027Z,4.80
2023-08-09T10:05:21.540Z,3.63
2023-08-09T10:07:53.468Z,4.95
2023-08-09T10:10:21.660Z,5.20
2023-08-09T10:12:50.233Z,4.55
2023-08-09T10:15:22.169Z,3.75
2023-08-09T10:17:51.078Z,5.43
2023-08-09T10:20:18.572Z,4.95
2023-08-09T10:22:50.334Z,5.63
2023-08-09T10:25:19.499Z,6.22
2023-08-09T10:27:54.661Z,3.85
2023-08-09T10:30:29.612Z,4.22
2023-08-09T10:33:00.251Z,5.28
2023-08-09T10:35:46.678Z,3.63
2023-08-09T10:38:14.822Z,7.00
2023-08-09T10:40:42.944Z,4.38
2023-08-09T10:43:19.738Z,3.42
2023-08-09T10:45:47.333Z,4.85
2023-08-09T10:48:32.763Z,3.10
2023-08-09T10:51:09.314Z,3.95
2023-08-09T10:56:04.237Z,5.10
2023-08-09T10:58:33.907Z,5.57
2023-08-09T11:01:02.385Z,4.88
2023-08-09T11:03:30.284Z,5.10
2023-08-09T11:05:57.550Z,3.15
2023-08-09T11:08:24.762Z,7.05
2023-08-09T11:10:53.263Z,5.13
2023-08-09T11:13:20.713Z,5.97
2023-08-09T11:15:52.592Z,4.38
2023-08-09T11:18:19.799Z,6.55
2023-08-09T11:20:47.346Z,5.05
2023-08-09T11:23:14.679Z,4.35
2023-08-09T11:25:41.862Z,5.13
2023-08-09T11:28:13.527Z,4.85
2023-08-09T11:30:43.484Z,4.07
2023-08-09T11:33:12.303Z,7.10
2023-08-09T11:35:46.838Z,4.38
2023-08-09T11:38:17.472Z,5.65
2023-08-09T11:40:46.214Z,5.07
2023-08-09T11:43:23.119Z,2.92
2023-08-09T11:45:50.588Z,7.57
2023-08-09T11:48:28.092Z,8.63
2023-08-09T11:51:08.143Z,3.47
2023-08-09T11:53:36.377Z,5.32
2023-08-09T11:56:05.569Z,2.83
2023-08-09T11:58:39.601Z,5.88
2023-08-09T12:01:32.935Z,3.08
2023-08-09T12:04:00.978Z,5.80
2023-08-09T12:06:35.793Z,6.90
2023-08-09T12:09:22.927Z,2.45
2023-08-09T12:11:50.547Z,3.25
2023-08-09T12:14:17.705Z,5.40
2023-08-09T12:16:44.953Z,2.78
2023-08-09T12:19:12.165Z,5.68
2023-08-09T12:21:39.350Z,3.60
2023-08-09T12:24:06.846Z,4.82
2023-08-09T12:26:33.725Z,2.25
2023-08-09T12:29:00.943Z,5.75
2023-08-09T12:31:28.160Z,5.25
2023-08-09T12:33:55.631Z,2.15
2023-08-09T12:36:22.871Z,3.25
2023-08-09T12:38:50.662Z,5.65
2023-08-09T12:41:17.899Z,3.63
2023-08-09T12:43:45.171Z,3.70
2023-08-09T12:46:11.937Z,3.83
2023-08-09T12:48:38.775Z,1.55
2023-08-09T12:51:05.980Z,4.78
2023-08-09T12:53:38.108Z,3.30
2023-08-09T12:56:05.488Z,6.22
2023-08-09T12:58:32.224Z,5.25
2023-08-09T13:01:00.404Z,3.92
2023-08-09T13:03:33.584Z,4.07
2023-08-09T13:06:00.860Z,4.15
2023-08-09T13:08:28.038Z,3.20
2023-08-09T13:10:55.245Z,4.30
2023-08-09T13:13:22.499Z,2.63
2023-08-09T13:15:50.857Z,2.13
2023-08-09T13:18:21.006Z,3.95
2023-08-09T13:20:48.459Z,3.95
2023-08-09T13:23:15.705Z,3.28
2023-08-09T13:25:42.555Z,2.47
2023-08-09T13:28:10.814Z,3.17
2023-08-09T13:30:40.733Z,5.82
2023-08-09T13:33:07.987Z,2.42
2023-08-09T13:35:35.535Z,3.45
2023-08-09T13:38:05.552Z,4.05
2023-08-09T13:40:33.322Z,5.50
2023-08-09T13:43:01.404Z,6.40
2023-08-09T13:45:28.760Z,3.30
2023-08-09T13:47:55.759Z,4.22
2023-08-09T13:50:22.693Z,3.05
2023-08-09T13:52:49.893Z,4.03
2023-08-09T13:55:17.078Z,4.43
2023-08-09T13:57:46.994Z,3.03
2023-08-09T14:00:15.525Z,3.25
2023-08-09T14:02:43.254Z,5.43
2023-08-09T14:05:11.859Z,6.28
2023-08-09T14:07:39.161Z,2.35
2023-08-09T14:10:07.928Z,3.92
2023-08-09T14:12:41.020Z,3.60
2023-08-09T14:15:11.447Z,5.55
2023-08-09T14:17:38.674Z,4.60
2023-08-09T14:20:08.150Z,2.50
2023-08-09T14:22:34.936Z,4.28
2023-08-09T14:25:02.089Z,7.22
2023-08-09T14:27:29.029Z,3.05
2023-08-09T14:29:57.688Z,4.90
2023-08-09T14:32:25.033Z,3.28
2023-08-09T14:34:52.223Z,3.15
2023-08-09T14:37:19.924Z,3.15
2023-08-09T14:39:47.093Z,2.35
2023-08-09T14:42:16.943Z,3.15
2023-08-09T14:44:44.163Z,2.40
2023-08-09T14:47:11.424Z,2.80
2023-08-09T14:49:40.955Z,5.90
2023-08-09T14:52:09.014Z,3.55
2023-08-09T14:54:38.739Z,3.65
2023-08-09T14:57:06.411Z,1.88
2023-08-09T14:59:33.650Z,4.97
2023-08-09T15:02:00.846Z,2.92
2023-08-09T15:04:28.007Z,2.92
2023-08-09T15:06:55.262Z,1.58
2023-08-09T15:09:22.472Z,2.47
2023-08-09T15:11:50.115Z,5.47
2023-08-09T15:14:23.550Z,1.88
2023-08-09T15:16:54.571Z,2.58
2023-08-09T15:19:22.847Z,3.22
2023-08-09T15:21:50.155Z,2.38
2023-08-09T15:24:17.368Z,4.78
2023-08-09T15:26:44.583Z,3.38
2023-08-09T15:29:13.022Z,1.98
2023-08-09T15:31:39.872Z,4.43
2023-08-09T15:34:07.138Z,1.40
2023-08-09T15:36:34.283Z,6.18
2023-08-09T15:39:03.919Z,5.30
2023-08-09T15:41:31.413Z,2.15
2023-08-09T15:43:58.607Z,2.13
2023-08-09T15:46:26.315Z,4.35
2023-08-09T15:48:55.453Z,5.35
2023-08-09T15:51:22.685Z,4.68
2023-08-09T15:53:49.869Z,3.17
2023-08-09T15:56:17.210Z,5.38
2023-08-09T15:58:44.348Z,4.07
2023-08-09T16:01:14.448Z,3.35
2023-08-09T16:06:13.631Z,2.60
2023-08-09T16:08:41.594Z,6.03
2023-08-09T16:11:08.888Z,4.35
2023-08-09T16:13:35.693Z,4.47
2023-08-09T16:16:04.203Z,5.45
2023-08-09T16:18:31.478Z,4.03
2023-08-09T16:20:58.840Z,3.60
2023-08-09T16:23:26.234Z,2.97
2023-08-09T16:25:54.528Z,4.32
2023-08-09T16:28:21.853Z,2.60
2023-08-09T16:30:49.137Z,2.55
2023-08-09T16:33:16.571Z,2.60
2023-08-09T16:35:43.930Z,4.35
2023-08-09T16:38:11.467Z,4.25
2023-08-09T16:40:39.737Z,4.03
2023-08-09T16:43:09.563Z,3.95
2023-08-09T16:45:36.866Z,2.45
2023-08-09T16:48:04.185Z,4.35
2023-08-09T16:50:32.966Z,5.07
2023-08-09T16:53:01.333Z,5.45
2023-08-09T16:55:28.972Z,5.28
2023-08-09T16:57:55.862Z,4.57
2023-08-09T17:00:26.750Z,4.90
2023-08-09T17:02:56.192Z,4.63
2023-08-09T17:05:26.146Z,4.53
2023-08-09T17:07:58.276Z,4.30
2023-08-09T17:10:28.879Z,4.15
2023-08-09T17:12:57.475Z,4.22
2023-08-09T17:15:26.390Z,4.50
2023-08-09T17:17:53.654Z,3.20
2023-08-09T17:20:21.544Z,5.00
2023-08-09T17:22:52.687Z,6.50
2023-08-09T17:25:20.195Z,5.38
2023-08-09T17:27:48.097Z,5.95
2023-08-09T17:30:15.424Z,8.07
2023-08-09T17:32:42.650Z,6.13
2023-08-09T17:35:10.786Z,6.00
2023-08-09T17:37:38.173Z,5.65
2023-08-09T17:40:05.571Z,6.18
2023-08-09T17:42:32.352Z,3.08
2023-08-09T17:45:00.968Z,7.78
2023-08-09T17:47:29.614Z,4.45
2023-08-09T17:49:58.681Z,4.30
2023-08-09T17:52:28.171Z,3.78
2023-08-09T17:55:04.060Z,2.60
2023-08-09T17:57:31.521Z,5.63
2023-08-09T17:59:58.973Z,7.85
2023-08-09T18:02:26.343Z,9.35
2023-08-09T18:04:58.632Z,6.07
2023-08-09T18:07:26.689Z,4.55
2023-08-09T18:09:53.884Z,3.92
2023-08-09T18:12:21.174Z,6.60
2023-08-09T18:14:48.418Z,3.88
2023-08-09T18:17:15.891Z,6.10
2023-08-09T18:19:43.042Z,3.67
2023-08-09T18:22:10.729Z,4.00
2023-08-09T18:24:37.987Z,5.47
2023-08-09T18:27:06.176Z,4.28
2023-08-09T18:29:36.219Z,5.55
2023-08-09T18:32:06.268Z,5.35
2023-08-09T18:34:33.529Z,4.82
2023-08-09T18:37:00.315Z,8.05
2023-08-09T18:39:30.668Z,5.28
2023-08-09T18:42:00.744Z,3.03
2023-08-09T18:44:28.002Z,5.03
2023-08-09T18:46:56.072Z,5.10
2023-08-09T18:49:26.154Z,4.15
2023-08-09T18:51:53.756Z,3.63
2023-08-09T18:54:21.656Z,7.03
2023-08-09T18:56:49.069Z,6.72
2023-08-09T18:59:16.349Z,5.28
2023-08-09T19:01:45.610Z,5.50
2023-08-09T19:04:12.802Z,3.75
2023-08-09T19:06:40.157Z,5.45
2023-08-09T19:09:07.461Z,6.70
2023-08-09T19:11:35.981Z,5.20
2023-08-09T19:14:05.726Z,5.75
2023-08-09T19:16:35.155Z,4.70
2023-08-09T19:19:06.785Z,4.93
2023-08-09T19:21:34.385Z,5.50
2023-08-09T19:24:05.235Z,8.70
2023-08-09T19:26:34.228Z,6.32
2023-08-09T19:29:02.045Z,3.72
2023-08-09T19:31:29.334Z,6.43
2023-08-09T19:33:56.640Z,9.60
2023-08-09T19:36:23.951Z,8.13
2023-08-09T19:38:51.134Z,5.45
2023-08-09T19:41:22.034Z,5.25
2023-08-09T19:43:49.343Z,5.18
2023-08-09T19:46:18.100Z,6.57
2023-08-09T19:48:46.343Z,5.57
2023-08-09T19:51:14.098Z,4.50
2023-08-09T19:53:47.589Z,5.47
2023-08-09T19:56:16.422Z,5.63
2023-08-09T19:58:43.998Z,7.18
2023-08-09T20:01:12.070Z,3.63
2023-08-09T20:03:39.560Z,4.85
2023-08-09T20:06:07.454Z,6.47
2023-08-09T20:08:35.231Z,5.13
2023-08-09T20:11:06.983Z,3.70
2023-08-09T20:13:34.806Z,6.47
2023-08-09T20:16:02.140Z,4.95
2023-08-09T20:18:34.060Z,3.72
2023-08-09T20:21:04.637Z,4.80
2023-08-09T20:23:32.882Z,8.18
2023-08-09T20:26:00.863Z,6.40
2023-08-09T20:28:35.628Z,7.93
2023-08-09T20:31:03.028Z,7.57
2023-08-09T20:33:33.535Z,8.43
2023-08-09T20:36:00.890Z,6.38
2023-08-09T20:38:28.912Z,8.32
2023-08-09T20:40:56.252Z,9.10
2023-08-09T20:43:24.792Z,7.35
2023-08-09T20:45:52.086Z,6.95
2023-08-09T20:48:20.002Z,9.50
2023-08-09T20:50:47.378Z,6.95
2023-08-09T20:53:16.831Z,6.55
2023-08-09T20:55:45.026Z,4.90
2023-08-09T20:58:12.677Z,6.55
2023-08-09T21:00:42.298Z,7.00
2023-08-09T21:03:09.999Z,5.32
2023-08-09T21:05:40.912Z,8.68
2023-08-09T21:08:08.135Z,6.32
2023-08-09T21:10:35.340Z,5.90
2023-08-09T21:13:02.566Z,5.57
2023-08-09T21:15:31.866Z,5.97
2023-08-09T21:17:59.068Z,6.47
2023-08-09T21:20:26.966Z,5.20
2023-08-09T21:22:57.790Z,7.95
2023-08-09T21:30:22.782Z,6.55
2023-08-09T21:32:50.268Z,6.60
2023-08-09T21:35:17.582Z,7.57
2023-08-09T21:37:44.772Z,7.43
2023-08-09T21:40:12.343Z,5.15
2023-08-09T21:42:41.798Z,7.28
2023-08-09T21:45:10.766Z,6.15
2023-08-09T21:47:38.670Z,7.63
2023-08-09T21:50:06.748Z,6.15
2023-08-09T21:52:34.039Z,6.97
2023-08-09T21:55:01.263Z,6.25
2023-08-09T21:57:28.442Z,6.70
2023-08-09T21:59:57.621Z,8.95
2023-08-09T22:02:24.916Z,6.72
2023-08-09T22:04:53.389Z,6.22
2023-08-09T22:07:20.600Z,4.72
2023-08-09T22:09:47.765Z,7.72
2023-08-09T22:12:14.991Z,7.25
2023-08-09T22:14:45.890Z,5.20
2023-08-09T22:17:13.050Z,6.82
2023-08-09T22:19:40.282Z,4.63
2023-08-09T22:24:40.563Z,5.57
2023-08-09T22:27:07.691Z,6.57
2023-08-09T22:29:34.828Z,7.07
2023-08-09T22:32:02.184Z,5.10
2023-08-09T22:34:29.649Z,5.63
2023-08-09T22:36:56.858Z,5.35
2023-08-09T22:39:24.114Z,6.13
2023-08-09T22:41:50.933Z,5.63
2023-08-09T22:44:18.141Z,5.10
2023-08-09T22:46:45.286Z,7.55
2023-08-09T22:49:12.982Z,7.60
2023-08-09T22:51:41.004Z,7.22
2023-08-09T22:54:08.369Z,4.95
2023-08-09T22:56:36.483Z,5.10
2023-08-09T22:59:03.685Z,7.07
2023-08-09T23:01:30.576Z,4.22
2023-08-09T23:03:57.856Z,2.63
2023-08-09T23:06:24.897Z,7.03
2023-08-09T23:08:51.762Z,3.40
2023-08-09T23:11:19.001Z,6.03
2023-08-09T23:13:49.335Z,5.85
2023-08-09T23:16:19.597Z,2.88
2023-08-09T23:18:46.948Z,4.90
2023-08-09T23:21:17.383Z,4.18
2023-08-09T23:23:44.745Z,6.40
2023-08-09T23:26:12.811Z,6.75
2023-08-09T23:28:41.980Z,6.25
2023-08-09T23:31:10.271Z,1.48
2023-08-09T23:33:37.459Z,3.75
2023-08-09T23:36:04.933Z,2.47
2023-08-09T23:38:32.153Z,2.90
2023-08-09T23:40:59.391Z,5.97
2023-08-09T23:43:27.065Z,5.35
2023-08-09T23:45:54.380Z,4.40
2023-08-09T23:48:21.607Z,3.28
2023-08-09T23:50:49.191Z,7.00
2023-08-09T23:53:16.617Z,6.78
2023-08-09T23:55:43.820Z,5.82
2023-08-09T23:58:11.173Z,4.05
